createdAt,value
2019-03-05T00:00:39.901Z,5.68
2019-03-05T00:03:08.225Z,5.68
2019-03-05T00:05:36.472Z,5.67
2019-03-05T00:08:04.726Z,5.66
2019-03-05T00:10:32.985Z,1.99
2019-03-05T00:13:01.237Z,5.62
2019-03-05T00:15:30.361Z,5.64
2019-03-05T00:17:58.654Z,5.66
2019-03-05T00:20:26.961Z,5.65
2019-03-05T00:22:55.222Z,5.63
2019-03-05T00:25:25.619Z,5.62
2019-03-05T00:28:19.839Z,5.62
2019-03-05T00:31:00.571Z,5.62
2019-03-05T00:33:43.984Z,5.61
2019-03-05T00:36:32.110Z,5.62
2019-03-05T00:39:18.763Z,5.62
2019-03-05T00:42:15.831Z,5.61
2019-03-05T00:44:53.002Z,5.64
2019-03-05T00:47:27.146Z,5.65
2019-03-05T00:50:07.341Z,5.64
2019-03-05T00:53:02.877Z,2.40
2019-03-05T00:55:40.294Z,5.61
2019-03-05T00:58:14.865Z,5.57
2019-03-05T01:01:01.349Z,5.56
2019-03-05T01:04:04.838Z,5.54
2019-03-05T01:06:33.138Z,5.53
2019-03-05T01:09:01.664Z,5.49
2019-03-05T01:11:30.122Z,5.47
2019-03-05T01:13:58.582Z,5.45
2019-03-05T01:16:28.630Z,5.48
2019-03-05T01:18:56.965Z,5.47
2019-03-05T01:21:26.637Z,5.46
2019-03-05T01:23:54.874Z,5.44
2019-03-05T01:26:23.346Z,5.42
2019-03-05T01:28:51.777Z,5.37
2019-03-05T01:31:37.719Z,5.36
2019-03-05T01:34:07.666Z,4.14
2019-03-05T01:36:40.725Z,5.33
2019-03-05T01:39:25.620Z,5.35
2019-03-05T01:41:54.030Z,5.36
2019-03-05T01:44:22.476Z,5.37
2019-03-05T01:46:50.953Z,5.38
2019-03-05T01:49:19.345Z,5.36
2019-03-05T01:51:47.682Z,5.28
2019-03-05T01:54:16.012Z,5.28
2019-03-05T01:56:44.307Z,5.22
2019-03-05T01:59:14.337Z,5.17
2019-03-05T02:01:45.836Z,5.08
2019-03-05T02:04:14.178Z,5.06
2019-03-05T02:06:42.557Z,5.01
2019-03-05T02:09:10.832Z,4.95
2019-03-05T02:11:39.254Z,4.85
2019-03-05T02:14:07.781Z,4.82
2019-03-05T02:16:36.151Z,4.78
2019-03-05T02:19:33.474Z,4.72
2019-03-05T02:22:01.829Z,4.68
2019-03-05T02:24:48.274Z,4.66
2019-03-05T02:27:42.350Z,4.62
2019-03-05T02:30:31.889Z,4.61
2019-03-05T02:33:05.955Z,4.63
2019-03-05T02:35:37.538Z,4.60
2019-03-05T02:38:09.088Z,4.63
2019-03-05T02:40:49.657Z,4.63
2019-03-05T02:43:23.860Z,4.59
2019-03-05T02:45:58.360Z,4.58
2019-03-05T02:48:49.182Z,4.56
2019-03-05T02:51:35.755Z,4.52
2019-03-05T02:54:23.801Z,4.54
2019-03-05T02:57:08.740Z,4.57
2019-03-05T02:59:37.263Z,4.58
2019-03-05T03:02:08.013Z,4.60
2019-03-05T03:04:38.106Z,4.61
2019-03-05T03:07:06.565Z,4.60
2019-03-05T03:09:38.222Z,4.56
2019-03-05T03:12:06.632Z,4.57
2019-03-05T03:14:34.945Z,4.53
2019-03-05T03:17:03.297Z,1.52
2019-03-05T03:19:31.733Z,4.49
2019-03-05T03:22:00.065Z,4.46
2019-03-05T03:24:28.542Z,4.44
2019-03-05T03:26:56.962Z,4.41
2019-03-05T03:29:25.305Z,2.12
2019-03-05T03:31:53.787Z,4.12
2019-03-05T03:34:22.225Z,4.30
2019-03-05T03:36:50.587Z,4.29
2019-03-05T03:39:19.036Z,4.26
2019-03-05T03:41:47.388Z,4.20
2019-03-05T03:44:15.750Z,4.16
2019-03-05T03:46:44.137Z,4.11
2019-03-05T03:49:12.556Z,4.09
2019-03-05T03:51:40.902Z,4.06
2019-03-05T03:54:09.183Z,4.07
2019-03-05T03:56:37.547Z,4.09
2019-03-05T03:59:05.906Z,4.07
2019-03-05T04:01:34.234Z,4.08
2019-03-05T04:04:02.604Z,4.11
2019-03-05T04:06:31.018Z,4.12
2019-03-05T04:08:59.441Z,4.08
2019-03-05T04:11:27.717Z,4.08
2019-03-05T04:13:59.521Z,4.05
2019-03-05T04:16:26.128Z,4.03
2019-03-05T04:18:54.391Z,4.03
2019-03-05T04:21:22.763Z,4.02
2019-03-05T04:23:51.135Z,4.03
2019-03-05T04:26:19.479Z,4.03
2019-03-05T04:28:47.755Z,4.03
2019-03-05T04:31:16.072Z,-0.09
2019-03-05T04:33:45.995Z,4.03
2019-03-05T04:36:14.346Z,4.05
2019-03-05T04:38:42.923Z,4.06
2019-03-05T04:41:11.163Z,4.07
2019-03-05T04:43:39.522Z,4.08
2019-03-05T04:46:09.537Z,4.09
2019-03-05T04:48:37.848Z,4.08
2019-03-05T04:51:07.826Z,4.09
2019-03-05T04:53:36.201Z,4.08
2019-03-05T04:56:04.552Z,4.09
2019-03-05T04:58:32.915Z,4.06
2019-03-05T05:01:01.178Z,4.04
2019-03-05T05:03:29.509Z,4.07
2019-03-05T05:05:57.784Z,4.07
2019-03-05T05:08:26.199Z,4.10
2019-03-05T05:10:54.561Z,4.11
2019-03-05T05:13:22.895Z,4.10
2019-03-05T05:15:51.201Z,4.10
2019-03-05T05:18:19.512Z,4.07
2019-03-05T05:20:47.924Z,4.03
2019-03-05T05:23:16.261Z,4.04
2019-03-05T05:25:44.620Z,4.02
2019-03-05T05:28:12.907Z,4.02
2019-03-05T05:30:42.237Z,4.01
2019-03-05T05:33:10.521Z,4.00
2019-03-05T05:35:38.922Z,4.03
2019-03-05T05:38:07.329Z,4.05
2019-03-05T05:40:40.093Z,4.02
2019-03-05T05:43:16.512Z,4.04
2019-03-05T05:45:46.476Z,4.00
2019-03-05T05:48:14.794Z,4.02
2019-03-05T05:50:43.153Z,4.02
2019-03-05T05:53:13.192Z,3.99
2019-03-05T05:55:41.672Z,3.97
2019-03-05T05:58:10.192Z,3.94
2019-03-05T06:00:40.065Z,3.89
2019-03-05T06:03:08.381Z,3.83
2019-03-05T06:05:36.754Z,3.83
2019-03-05T06:08:05.047Z,3.88
2019-03-05T06:10:33.505Z,3.94
2019-03-05T06:13:01.878Z,3.99
2019-03-05T06:15:30.229Z,4.07
2019-03-05T06:17:58.626Z,4.16
2019-03-05T06:20:27.027Z,4.24
2019-03-05T06:22:55.428Z,4.28
2019-03-05T06:25:23.863Z,4.34
2019-03-05T06:27:52.194Z,4.42
2019-03-05T06:30:25.543Z,4.48
2019-03-05T06:32:53.817Z,4.53
2019-03-05T06:35:22.164Z,4.61
2019-03-05T06:37:50.503Z,4.68
2019-03-05T06:40:24.385Z,4.73
2019-03-05T06:42:52.913Z,4.76
2019-03-05T06:45:21.217Z,4.79
2019-03-05T06:47:49.638Z,4.82
2019-03-05T06:50:24.709Z,4.84
2019-03-05T06:52:53.072Z,4.87
2019-03-05T06:55:23.069Z,2.35
2019-03-05T06:57:51.463Z,4.98
2019-03-05T07:00:25.722Z,5.05
2019-03-05T07:02:54.185Z,5.12
2019-03-05T07:05:59.036Z,5.16
2019-03-05T07:08:27.558Z,1.75
2019-03-05T07:10:59.184Z,5.30
2019-03-05T07:13:27.641Z,5.39
2019-03-05T07:15:59.204Z,5.45
2019-03-05T07:18:30.720Z,5.45
2019-03-05T07:21:08.086Z,5.43
2019-03-05T07:23:54.363Z,5.44
2019-03-05T07:26:22.709Z,5.44
2019-03-05T07:28:51.033Z,5.43
2019-03-05T07:31:19.454Z,5.45
2019-03-05T07:33:47.813Z,5.49
2019-03-05T07:36:16.139Z,5.51
2019-03-05T07:38:44.617Z,5.59
2019-03-05T07:41:13.016Z,5.64
2019-03-05T07:43:41.314Z,5.73
2019-03-05T07:46:09.658Z,5.81
2019-03-05T07:48:37.996Z,5.87
2019-03-05T07:51:06.373Z,5.96
2019-03-05T07:53:34.663Z,6.07
2019-03-05T07:56:03.203Z,6.17
2019-03-05T07:58:31.617Z,2.93
2019-03-05T08:01:00.037Z,6.35
2019-03-05T08:03:28.380Z,6.49
2019-03-05T08:05:56.884Z,6.60
2019-03-05T08:09:03.494Z,1.87
2019-03-05T08:11:31.997Z,6.86
2019-03-05T08:14:28.765Z,7.01
2019-03-05T08:16:57.117Z,7.11
2019-03-05T08:19:25.639Z,7.22
2019-03-05T08:21:53.991Z,7.35
2019-03-05T08:24:24.110Z,6.68
2019-03-05T08:26:52.632Z,7.75
2019-03-05T08:29:20.937Z,8.17
2019-03-05T08:31:49.209Z,8.50
2019-03-05T08:34:17.635Z,8.72
2019-03-05T08:36:45.995Z,8.98
2019-03-05T08:39:16.103Z,9.20
2019-03-05T08:41:44.498Z,9.41
2019-03-05T08:44:13.015Z,9.34
2019-03-05T08:46:41.420Z,9.69
2019-03-05T08:49:09.766Z,9.54
2019-03-05T08:51:44.164Z,9.61
2019-03-05T08:54:12.579Z,9.48
2019-03-05T08:56:41.109Z,9.56
2019-03-05T08:59:09.518Z,9.64
2019-03-05T09:01:39.510Z,9.91
2019-03-05T09:04:07.797Z,10.06
2019-03-05T09:06:36.113Z,10.46
2019-03-05T09:09:06.493Z,10.53
2019-03-05T09:11:34.853Z,10.47
2019-03-05T09:14:03.173Z,10.72
2019-03-05T09:16:31.455Z,10.84
2019-03-05T09:19:00.606Z,10.92
2019-03-05T09:21:28.976Z,10.91
2019-03-05T09:23:57.333Z,10.76
2019-03-05T09:26:25.709Z,10.73
2019-03-05T09:28:55.719Z,10.69
2019-03-05T09:31:24.198Z,8.48
2019-03-05T09:33:52.666Z,10.57
2019-03-05T09:36:25.911Z,10.35
2019-03-05T09:38:54.152Z,6.16
2019-03-05T09:41:22.496Z,10.14
2019-03-05T09:43:50.864Z,10.09
2019-03-05T09:46:19.194Z,9.87
2019-03-05T09:48:47.592Z,9.75
2019-03-05T09:51:15.993Z,9.29
2019-03-05T09:53:44.359Z,9.64
2019-03-05T09:56:12.745Z,9.46
2019-03-05T09:58:41.126Z,9.38
2019-03-05T10:01:09.540Z,9.27
2019-03-05T10:03:41.007Z,9.29
2019-03-05T10:06:09.453Z,5.16
2019-03-05T10:08:37.921Z,9.51
2019-03-05T10:11:06.188Z,9.58
2019-03-05T10:13:34.472Z,9.79
2019-03-05T10:16:02.990Z,9.94
2019-03-05T10:18:33.030Z,10.11
2019-03-05T10:21:01.595Z,10.40
2019-03-05T10:23:30.060Z,10.68
2019-03-05T10:25:58.391Z,10.80
2019-03-05T10:28:26.889Z,10.86
2019-03-05T10:30:55.252Z,10.66
2019-03-05T10:33:23.700Z,10.67
2019-03-05T10:35:52.087Z,10.63
2019-03-05T10:38:20.473Z,6.93
2019-03-05T10:40:51.820Z,10.41
2019-03-05T10:43:20.205Z,10.40
2019-03-05T10:45:49.847Z,10.75
2019-03-05T10:48:23.493Z,10.88
2019-03-05T10:50:51.733Z,10.93
2019-03-05T10:53:20.354Z,10.86
2019-03-05T10:55:48.608Z,10.90
2019-03-05T10:58:19.465Z,10.96
2019-03-05T11:00:52.287Z,10.99
2019-03-05T11:03:21.684Z,10.92
2019-03-05T11:05:50.041Z,10.91
2019-03-05T11:08:20.610Z,10.84
2019-03-05T11:10:48.939Z,10.84
2019-03-05T11:13:17.200Z,10.66
2019-03-05T11:15:46.990Z,10.57
2019-03-05T11:18:15.517Z,10.69
2019-03-05T11:20:43.774Z,10.77
2019-03-05T11:23:12.031Z,10.83
2019-03-05T11:25:40.292Z,10.91
2019-03-05T11:28:08.579Z,11.02
2019-03-05T11:30:38.452Z,11.00
2019-03-05T11:33:06.941Z,10.97
2019-03-05T11:35:35.833Z,10.98
2019-03-05T11:38:04.094Z,11.11
2019-03-05T11:40:32.348Z,11.16
2019-03-05T11:43:06.823Z,11.17
2019-03-05T11:45:35.159Z,11.27
2019-03-05T11:48:03.407Z,11.28
2019-03-05T11:50:31.686Z,11.13
2019-03-05T11:52:59.945Z,11.13
2019-03-05T11:55:29.376Z,11.13
2019-03-05T11:57:57.662Z,11.06
2019-03-05T12:00:29.747Z,10.89
2019-03-05T12:02:57.992Z,10.85
2019-03-05T12:05:26.254Z,10.93
2019-03-05T12:07:54.518Z,11.04
2019-03-05T12:10:27.119Z,11.10
2019-03-05T12:12:55.408Z,11.10
2019-03-05T12:15:25.386Z,11.14
2019-03-05T12:17:53.642Z,11.08
2019-03-05T12:20:21.900Z,11.11
2019-03-05T12:22:50.227Z,11.21
2019-03-05T12:25:20.214Z,11.22
2019-03-05T12:27:49.833Z,11.15
2019-03-05T12:30:23.053Z,11.06
2019-03-05T12:32:51.316Z,11.03
2019-03-05T12:35:19.562Z,10.99
2019-03-05T12:37:48.358Z,11.00
2019-03-05T12:40:18.065Z,10.89
2019-03-05T12:42:46.306Z,10.96
2019-03-05T12:45:16.669Z,11.04
2019-03-05T12:47:44.980Z,11.21
2019-03-05T12:50:25.377Z,11.37
2019-03-05T12:52:54.545Z,11.35
2019-03-05T12:55:22.860Z,11.22
2019-03-05T12:57:51.137Z,10.02
2019-03-05T13:00:29.073Z,11.25
2019-03-05T13:02:57.421Z,11.29
2019-03-05T13:05:25.685Z,11.36
2019-03-05T13:07:56.661Z,11.43
2019-03-05T13:10:35.839Z,11.37
2019-03-05T13:13:03.534Z,11.18
2019-03-05T13:15:39.416Z,11.03
2019-03-05T13:18:07.704Z,10.94
2019-03-05T13:20:35.964Z,10.84
2019-03-05T13:23:08.726Z,10.76
2019-03-05T13:25:34.196Z,10.66
2019-03-05T13:28:04.145Z,10.54
2019-03-05T13:30:32.944Z,10.37
2019-03-05T13:33:01.232Z,10.34
2019-03-05T13:35:32.080Z,10.23
2019-03-05T13:38:03.234Z,10.06
2019-03-05T13:40:34.019Z,10.01
2019-03-05T13:43:01.583Z,9.88
2019-03-05T13:45:29.838Z,9.69
2019-03-05T13:48:14.729Z,9.57
2019-03-05T13:51:09.486Z,9.51
2019-03-05T13:54:00.804Z,9.56
2019-03-05T13:56:37.590Z,9.51
2019-03-05T13:59:27.705Z,9.50
2019-03-05T14:01:55.966Z,9.56
2019-03-05T14:04:30.263Z,9.50
2019-03-05T14:07:36.607Z,9.43
2019-03-05T14:10:05.319Z,9.43
2019-03-05T14:12:33.626Z,9.35
2019-03-05T14:15:01.977Z,9.23
2019-03-05T14:17:30.724Z,8.97
2019-03-05T14:19:59.160Z,8.79
2019-03-05T14:22:27.500Z,8.41
2019-03-05T14:25:01.995Z,8.31
2019-03-05T14:27:26.044Z,8.18
2019-03-05T14:29:54.362Z,8.09
2019-03-05T14:32:24.297Z,8.00
2019-03-05T14:34:55.735Z,7.99
2019-03-05T14:37:24.082Z,7.93
2019-03-05T14:39:52.375Z,7.93
2019-03-05T14:42:20.652Z,7.92
2019-03-05T14:44:48.927Z,7.95
2019-03-05T14:47:17.163Z,7.93
2019-03-05T14:49:45.627Z,7.83
2019-03-05T14:52:13.980Z,7.77
2019-03-05T14:54:42.236Z,7.71
2019-03-05T14:57:10.572Z,7.68
2019-03-05T14:59:38.939Z,7.64
2019-03-05T15:02:07.198Z,7.61
2019-03-05T15:04:35.450Z,7.62
2019-03-05T15:07:04.787Z,7.56
2019-03-05T15:09:33.190Z,7.58
2019-03-05T15:12:01.450Z,7.55
2019-03-05T15:14:29.798Z,7.45
2019-03-05T15:16:58.037Z,7.33
2019-03-05T15:19:26.290Z,7.28
2019-03-05T15:21:54.561Z,7.23
2019-03-05T15:24:22.793Z,7.18
2019-03-05T15:26:51.077Z,7.15
2019-03-05T15:29:19.390Z,7.20
2019-03-05T15:31:47.873Z,7.20
2019-03-05T15:34:16.439Z,7.10
2019-03-05T15:36:44.894Z,7.09
2019-03-05T15:39:13.136Z,7.10
2019-03-05T15:41:45.726Z,7.17
2019-03-05T15:44:11.410Z,7.17
2019-03-05T15:46:39.876Z,7.13
2019-03-05T15:49:08.268Z,7.15
2019-03-05T15:51:36.861Z,7.17
2019-03-05T15:54:05.355Z,7.19
2019-03-05T15:56:33.733Z,7.22
2019-03-05T15:59:01.994Z,7.23
2019-03-05T16:01:30.245Z,7.24
2019-03-05T16:03:58.767Z,7.25
2019-03-05T16:06:30.155Z,7.27
2019-03-05T16:08:57.919Z,7.23
2019-03-05T16:11:30.241Z,7.23
2019-03-05T16:13:58.026Z,7.14
2019-03-05T16:16:26.466Z,7.10
2019-03-05T16:18:54.719Z,7.09
2019-03-05T16:21:22.977Z,7.05
2019-03-05T16:23:51.234Z,7.03
2019-03-05T16:26:23.705Z,6.95
2019-03-05T16:28:49.551Z,6.95
2019-03-05T16:31:22.444Z,6.92
2019-03-05T16:33:55.135Z,6.89
2019-03-05T16:36:28.892Z,6.87
2019-03-05T16:39:10.520Z,6.82
2019-03-05T16:41:40.700Z,6.81
2019-03-05T16:44:17.022Z,6.83
2019-03-05T16:46:53.893Z,6.81
2019-03-05T16:49:29.890Z,6.84
2019-03-05T16:51:59.921Z,6.83
2019-03-05T16:54:46.417Z,6.79
2019-03-05T16:57:19.386Z,6.80
2019-03-05T16:59:53.279Z,6.82
2019-03-05T17:02:38.342Z,6.83
2019-03-05T17:05:11.415Z,6.84
2019-03-05T17:07:44.052Z,6.78
2019-03-05T17:10:23.013Z,6.72
2019-03-05T17:12:51.526Z,6.71
2019-03-05T17:15:19.780Z,6.73
2019-03-05T17:17:48.036Z,6.72
2019-03-05T17:20:16.317Z,6.67
2019-03-05T17:22:44.572Z,6.66
2019-03-05T17:25:18.567Z,6.58
2019-03-05T17:27:47.068Z,6.54
2019-03-05T17:30:16.737Z,6.49
2019-03-05T17:32:45.059Z,6.45
2019-03-05T17:35:14.267Z,6.39
2019-03-05T17:37:42.515Z,6.36
2019-03-05T17:40:12.220Z,6.32
2019-03-05T17:42:40.478Z,6.31
2019-03-05T17:45:14.871Z,6.32
2019-03-05T17:47:43.118Z,6.31
2019-03-05T17:50:12.833Z,6.30
2019-03-05T17:52:41.086Z,6.27
2019-03-05T17:55:12.575Z,6.29
2019-03-05T17:57:40.823Z,6.33
2019-03-05T18:00:12.410Z,6.32
2019-03-05T18:02:40.742Z,6.30
2019-03-05T18:05:08.983Z,6.22
2019-03-05T18:07:37.244Z,6.19
2019-03-05T18:10:08.236Z,6.16
2019-03-05T18:12:36.663Z,6.15
2019-03-05T18:15:08.305Z,6.12
2019-03-05T18:17:36.548Z,6.12
2019-03-05T18:20:11.784Z,6.11
2019-03-05T18:22:40.041Z,6.15
2019-03-05T18:25:11.233Z,6.12
2019-03-05T18:27:39.497Z,6.10
2019-03-05T18:30:11.013Z,6.11
2019-03-05T18:32:39.264Z,6.09
2019-03-05T18:35:08.872Z,6.08
2019-03-05T18:37:37.149Z,6.10
2019-03-05T18:40:08.811Z,6.09
2019-03-05T18:42:37.067Z,6.11
2019-03-05T18:45:08.582Z,6.14
2019-03-05T18:47:37.010Z,6.16
2019-03-05T18:50:08.604Z,6.16
2019-03-05T18:52:36.866Z,6.18
2019-03-05T18:55:08.402Z,6.18
2019-03-05T18:57:36.666Z,6.22
2019-03-05T19:00:08.179Z,6.23
2019-03-05T19:02:36.436Z,6.24
2019-03-05T19:05:07.442Z,6.24
2019-03-05T19:07:35.718Z,6.22
2019-03-05T19:10:05.545Z,6.26
2019-03-05T19:12:33.795Z,6.25
2019-03-05T19:15:02.054Z,6.25
2019-03-05T19:17:30.327Z,6.26
2019-03-05T19:19:58.585Z,6.21
2019-03-05T19:22:26.832Z,6.20
2019-03-05T19:24:55.089Z,6.21
2019-03-05T19:27:26.383Z,6.23
2019-03-05T19:29:53.327Z,6.25
2019-03-05T19:32:21.588Z,6.19
2019-03-05T19:34:49.893Z,6.19
2019-03-05T19:37:18.170Z,6.16
2019-03-05T19:39:46.442Z,6.15
2019-03-05T19:42:14.716Z,6.15
2019-03-05T19:44:43.003Z,6.19
2019-03-05T19:47:11.240Z,6.19
2019-03-05T19:49:39.516Z,6.19
2019-03-05T19:52:07.991Z,6.21
2019-03-05T19:54:36.354Z,6.22
2019-03-05T19:57:04.616Z,6.22
2019-03-05T19:59:32.993Z,6.21
2019-03-05T20:02:01.405Z,6.20
2019-03-05T20:04:29.676Z,6.19
2019-03-05T20:06:57.947Z,6.20
2019-03-05T20:09:26.194Z,6.18
2019-03-05T20:11:54.467Z,6.18
2019-03-05T20:14:22.988Z,6.17
2019-03-05T20:16:51.237Z,6.18
2019-03-05T20:19:19.512Z,6.19
2019-03-05T20:21:47.858Z,6.17
2019-03-05T20:24:16.233Z,6.16
2019-03-05T20:26:44.760Z,6.16
2019-03-05T20:29:12.982Z,6.16
2019-03-05T20:31:44.242Z,6.15
2019-03-05T20:34:12.490Z,6.15
2019-03-05T20:36:40.773Z,6.16
2019-03-05T20:39:09.116Z,6.17
2019-03-05T20:41:37.460Z,6.15
2019-03-05T20:44:05.720Z,6.10
2019-03-05T20:46:34.019Z,6.07
2019-03-05T20:49:02.277Z,6.06
2019-03-05T20:51:30.536Z,6.01
2019-03-05T20:53:58.853Z,5.95
2019-03-05T20:56:27.120Z,5.89
2019-03-05T20:58:55.383Z,5.83
2019-03-05T21:01:23.650Z,5.80
2019-03-05T21:03:51.935Z,5.79
2019-03-05T21:06:21.344Z,5.76
2019-03-05T21:08:49.668Z,5.71
2019-03-05T21:11:17.925Z,5.70
2019-03-05T21:13:46.209Z,5.73
2019-03-05T21:16:14.517Z,5.73
2019-03-05T21:18:42.779Z,5.72
2019-03-05T21:21:11.038Z,2.01
2019-03-05T21:23:39.293Z,5.72
2019-03-05T21:26:07.607Z,5.74
2019-03-05T21:28:35.859Z,5.73
2019-03-05T21:31:04.264Z,5.75
2019-03-05T21:33:33.801Z,5.74
2019-03-05T21:36:02.113Z,5.75
2019-03-05T21:38:30.348Z,5.74
2019-03-05T21:41:00.233Z,5.74
2019-03-05T21:43:30.984Z,5.74
2019-03-05T21:46:05.585Z,5.74
2019-03-05T21:48:33.876Z,5.73
2019-03-05T21:51:02.127Z,5.71
2019-03-05T21:53:30.491Z,5.72
2019-03-05T21:55:58.838Z,5.73
2019-03-05T21:58:27.122Z,5.73
2019-03-05T22:00:55.385Z,5.71
2019-03-05T22:03:23.640Z,5.66
2019-03-05T22:05:51.943Z,5.64
2019-03-05T22:08:20.277Z,5.62
2019-03-05T22:10:48.538Z,5.61
2019-03-05T22:13:16.876Z,5.64
2019-03-05T22:15:45.135Z,5.63
2019-03-05T22:18:13.420Z,5.64
2019-03-05T22:20:41.965Z,5.64
2019-03-05T22:23:10.233Z,5.63
2019-03-05T22:25:38.584Z,5.65
2019-03-05T22:28:06.819Z,5.65
2019-03-05T22:30:36.508Z,5.65
2019-03-05T22:33:04.834Z,5.64
2019-03-05T22:35:33.094Z,5.63
2019-03-05T22:38:01.831Z,5.64
2019-03-05T22:40:30.089Z,5.63
2019-03-05T22:42:58.441Z,5.62
2019-03-05T22:45:27.673Z,5.63
2019-03-05T22:47:55.925Z,5.65
2019-03-05T22:50:24.214Z,5.62
2019-03-05T22:52:52.453Z,5.61
2019-03-05T22:55:20.750Z,5.62
2019-03-05T22:57:49.005Z,5.62
2019-03-05T23:00:36.678Z,5.67
2019-03-05T23:03:07.242Z,5.66
2019-03-05T23:05:35.947Z,5.65
2019-03-05T23:08:04.594Z,5.66
2019-03-05T23:10:32.940Z,5.68
2019-03-05T23:13:01.240Z,5.69
2019-03-05T23:15:29.573Z,5.70
2019-03-05T23:17:57.843Z,5.71
2019-03-05T23:20:26.102Z,5.74
2019-03-05T23:22:54.376Z,5.73
2019-03-05T23:25:22.845Z,5.77
2019-03-05T23:27:51.097Z,5.77
2019-03-05T23:30:21.682Z,5.76
2019-03-05T23:32:51.571Z,5.74
2019-03-05T23:35:19.846Z,5.75
2019-03-05T23:37:48.078Z,5.75
2019-03-05T23:40:16.666Z,5.74
2019-03-05T23:42:45.033Z,5.76
2019-03-05T23:45:18.559Z,5.79
2019-03-05T23:47:46.893Z,5.82
2019-03-05T23:50:18.216Z,5.81
2019-03-05T23:52:46.454Z,5.79
2019-03-05T23:55:14.978Z,5.78
2019-03-05T23:57:43.541Z,5.83
